createdAt,value
2023-01-07T00:01:27.177Z,97458.50
2023-01-07T00:03:54.933Z,97460.47
2023-01-07T00:06:25.644Z,97462.16
2023-01-07T00:08:53.272Z,97462.00
2023-01-07T00:11:32.061Z,97461.16
2023-01-07T00:13:59.210Z,97458.66
2023-01-07T00:16:28.481Z,97452.31
2023-01-07T00:18:55.918Z,97455.53
2023-01-07T00:21:23.451Z,97446.72
2023-01-07T00:23:50.423Z,97450.94
2023-01-07T00:26:20.716Z,97448.28
2023-01-07T00:28:48.156Z,97443.09
2023-01-07T00:31:22.898Z,97443.50
2023-01-07T00:33:50.124Z,97446.00
2023-01-07T00:36:16.761Z,97438.72
2023-01-07T00:38:43.484Z,97443.09
2023-01-07T00:41:10.375Z,97434.69
2023-01-07T00:43:37.066Z,97434.25
2023-01-07T00:46:03.805Z,97424.72
2023-01-07T00:48:32.633Z,97416.91
2023-01-07T00:50:59.311Z,97422.91
2023-01-07T00:53:25.965Z,97426.69
2023-01-07T00:55:52.603Z,97424.47
2023-01-07T00:58:23.647Z,97416.75
2023-01-07T01:00:50.425Z,97417.72
2023-01-07T01:03:17.133Z,97414.94
2023-01-07T01:05:43.763Z,97421.06
2023-01-07T01:08:10.469Z,97406.31
2023-01-07T01:10:37.209Z,97402.78
2023-01-07T01:13:03.839Z,97411.03
2023-01-07T01:15:30.483Z,97407.84
2023-01-07T01:17:57.108Z,97399.47
2023-01-07T01:20:23.727Z,97406.75
2023-01-07T01:22:50.344Z,97399.78
2023-01-07T01:25:16.964Z,97392.06
2023-01-07T01:27:43.574Z,97394.72
2023-01-07T01:30:10.590Z,97390.28
2023-01-07T01:32:37.231Z,97382.16
2023-01-07T01:35:03.924Z,97385.38
2023-01-07T01:37:30.576Z,97376.44
2023-01-07T01:39:57.218Z,97371.25
2023-01-07T01:42:24.318Z,97370.28
2023-01-07T01:44:50.820Z,97377.41
2023-01-07T01:47:20.313Z,97371.81
2023-01-07T01:49:56.947Z,97374.59
2023-01-07T01:52:26.787Z,97374.03
2023-01-07T01:54:55.788Z,97375.69
2023-01-07T01:57:22.446Z,97367.59
2023-01-07T01:59:50.106Z,97361.16
2023-01-07T02:02:20.394Z,97355.31
2023-01-07T02:04:47.144Z,97360.19
2023-01-07T02:07:16.855Z,97359.56
2023-01-07T02:09:43.648Z,97355.59
2023-01-07T02:12:41.257Z,97358.34
2023-01-07T02:15:37.082Z,97362.81
2023-01-07T02:18:32.775Z,97346.75
2023-01-07T02:21:02.293Z,97340.88
2023-01-07T02:23:50.305Z,97340.03
2023-01-07T02:26:38.452Z,97328.06
2023-01-07T02:29:13.978Z,97328.75
2023-01-07T02:31:46.249Z,97319.56
2023-01-07T02:34:35.565Z,97318.72
2023-01-07T02:37:24.108Z,97319.53
2023-01-07T02:39:58.355Z,97313.25
2023-01-07T02:42:37.874Z,97315.31
2023-01-07T02:45:16.319Z,97315.91
2023-01-07T02:47:47.820Z,97311.16
2023-01-07T02:50:14.502Z,97309.19
2023-01-07T02:52:41.607Z,97309.41
2023-01-07T02:55:08.200Z,97312.91
2023-01-07T02:57:56.402Z,97307.19
2023-01-07T03:00:22.904Z,97306.44
2023-01-07T03:03:10.521Z,97305.06
2023-01-07T03:05:39.886Z,97292.22
2023-01-07T03:08:15.272Z,97298.22
2023-01-07T03:11:04.210Z,97302.13
2023-01-07T03:13:52.554Z,97298.34
2023-01-07T03:16:24.104Z,97290.81
2023-01-07T03:18:56.005Z,97293.31
2023-01-07T03:21:22.718Z,97286.88
2023-01-07T03:23:51.535Z,97286.19
2023-01-07T03:26:20.291Z,97279.38
2023-01-07T03:28:46.959Z,97277.56
2023-01-07T03:31:14.203Z,97274.75
2023-01-07T03:34:00.396Z,97269.84
2023-01-07T03:36:32.896Z,97268.88
2023-01-07T03:38:59.542Z,97272.22
2023-01-07T03:41:26.200Z,97271.25
2023-01-07T03:43:52.873Z,97265.66
2023-01-07T03:46:19.505Z,97263.72
2023-01-07T03:48:46.140Z,97258.53
2023-01-07T03:51:12.809Z,97261.19
2023-01-07T03:53:39.432Z,97261.19
2023-01-07T03:56:06.188Z,97258.81
2023-01-07T03:58:32.863Z,97245.53
2023-01-07T04:00:59.724Z,97242.84
2023-01-07T04:03:26.424Z,97237.97
2023-01-07T04:05:53.059Z,97235.84
2023-01-07T04:08:21.743Z,97236.28
2023-01-07T04:10:48.375Z,97234.06
2023-01-07T04:13:15.020Z,97232.66
2023-01-07T04:15:41.650Z,97230.88
2023-01-07T04:18:08.274Z,97228.06
2023-01-07T04:20:34.921Z,97237.16
2023-01-07T04:23:01.544Z,97232.09
2023-01-07T04:25:28.188Z,97238.25
2023-01-07T04:27:54.823Z,97227.22
2023-01-07T04:30:21.459Z,97232.78
2023-01-07T04:32:48.074Z,97227.91
2023-01-07T04:35:14.711Z,97228.06
2023-01-07T04:37:41.441Z,97227.63
2023-01-07T04:40:08.657Z,97222.59
2023-01-07T04:42:35.290Z,97219.66
2023-01-07T04:45:01.952Z,97222.19
2023-01-07T04:47:28.604Z,97216.59
2023-01-07T04:49:55.279Z,97210.72
2023-01-07T04:52:21.917Z,97204.41
2023-01-07T04:54:48.538Z,97208.72
2023-01-07T04:57:15.183Z,97211.81
2023-01-07T04:59:41.842Z,97216.00
2023-01-07T05:02:08.532Z,97217.53
2023-01-07T05:04:35.261Z,97215.03
2023-01-07T05:07:01.967Z,97225.34
2023-01-07T05:09:28.607Z,97217.94
2023-01-07T05:11:55.234Z,97221.84
2023-01-07T05:14:21.897Z,97222.44
2023-01-07T05:16:48.566Z,97226.06
2023-01-07T05:19:15.285Z,97222.44
2023-01-07T05:21:41.909Z,97222.16
2023-01-07T05:24:08.579Z,97223.38
2023-01-07T05:26:35.217Z,97217.22
2023-01-07T05:29:01.834Z,97210.53
2023-01-07T05:31:28.444Z,97206.91
2023-01-07T05:33:55.079Z,97212.91
2023-01-07T05:36:21.803Z,97205.47
2023-01-07T05:38:48.443Z,97203.81
2023-01-07T05:41:15.063Z,97204.66
2023-01-07T05:43:41.681Z,97204.66
2023-01-07T05:46:08.430Z,97207.84
2023-01-07T05:48:35.086Z,97205.22
2023-01-07T05:51:01.706Z,97205.50
2023-01-07T05:53:28.385Z,97202.00
2023-01-07T05:55:58.259Z,97198.09
2023-01-07T05:58:24.904Z,97199.38
2023-01-07T06:00:51.558Z,97192.38
2023-01-07T06:03:18.295Z,97189.84
2023-01-07T06:05:44.959Z,97186.94
2023-01-07T06:08:11.600Z,97192.38
2023-01-07T06:10:38.264Z,97183.59
2023-01-07T06:13:04.903Z,97188.91
2023-01-07T06:15:31.583Z,97190.16
2023-01-07T06:17:58.230Z,97188.03
2023-01-07T06:20:27.535Z,97188.72
2023-01-07T06:22:54.178Z,97185.47
2023-01-07T06:25:20.816Z,97178.47
2023-01-07T06:27:47.472Z,97181.16
2023-01-07T06:30:14.120Z,97183.81
2023-01-07T06:32:41.426Z,97181.94
2023-01-07T06:35:08.947Z,97178.53
2023-01-07T06:37:35.572Z,97185.66
2023-01-07T06:40:02.260Z,97187.78
2023-01-07T06:42:28.914Z,97182.59
2023-01-07T06:44:55.534Z,97179.56
2023-01-07T06:47:22.181Z,97181.66
2023-01-07T06:49:48.836Z,97181.63
2023-01-07T06:52:15.471Z,97174.34
2023-01-07T06:54:46.950Z,97184.53
2023-01-07T06:57:14.887Z,97187.00
2023-01-07T06:59:41.515Z,97187.41
2023-01-07T07:02:09.672Z,97199.00
2023-01-07T07:04:36.386Z,97190.03
2023-01-07T07:07:03.012Z,97189.69
2023-01-07T07:09:29.638Z,97183.19
2023-01-07T07:11:56.268Z,97184.47
2023-01-07T07:14:22.922Z,97188.00
2023-01-07T07:16:49.627Z,97175.03
2023-01-07T07:19:16.245Z,97180.78
2023-01-07T07:21:42.863Z,97172.00
2023-01-07T07:24:10.298Z,97169.63
2023-01-07T07:26:36.965Z,97175.53
2023-01-07T07:29:03.611Z,97163.38
2023-01-07T07:31:30.285Z,97160.59
2023-01-07T07:33:56.943Z,97156.69
2023-01-07T07:36:23.598Z,97170.13
2023-01-07T07:38:50.207Z,97161.28
2023-01-07T07:41:16.833Z,97162.28
2023-01-07T07:43:43.466Z,97158.81
2023-01-07T07:46:10.113Z,97166.75
2023-01-07T07:48:36.746Z,97169.13
2023-01-07T07:51:03.429Z,97163.41
2023-01-07T07:53:30.387Z,97174.19
2023-01-07T07:55:57.020Z,97174.78
2023-01-07T07:58:23.632Z,97172.13
2023-01-07T08:00:50.347Z,97175.28
2023-01-07T08:03:17.059Z,97178.16
2023-01-07T08:05:43.873Z,97172.75
2023-01-07T08:08:11.541Z,97175.88
2023-01-07T08:10:38.175Z,97175.00
2023-01-07T08:13:04.806Z,97180.63
2023-01-07T08:15:31.473Z,97168.38
2023-01-07T08:18:02.185Z,97165.34
2023-01-07T08:20:28.844Z,97166.78
2023-01-07T08:22:57.644Z,97159.41
2023-01-07T08:25:24.282Z,97156.56
2023-01-07T08:27:50.926Z,97153.00
2023-01-07T08:30:17.563Z,97146.88
2023-01-07T08:32:44.185Z,97144.13
2023-01-07T08:35:10.829Z,97135.22
2023-01-07T08:37:37.925Z,97130.56
2023-01-07T08:40:06.120Z,97135.16
2023-01-07T08:42:32.827Z,97141.81
2023-01-07T08:44:59.450Z,97126.38
2023-01-07T08:47:26.253Z,97117.97
2023-01-07T08:49:53.309Z,97123.31
2023-01-07T08:52:19.925Z,97117.06
2023-01-07T08:54:48.205Z,97126.38
2023-01-07T08:57:15.791Z,97126.53
2023-01-07T08:59:42.422Z,97131.44
2023-01-07T09:02:18.625Z,97120.63
2023-01-07T09:04:45.557Z,97127.97
2023-01-07T09:07:12.354Z,97126.59
2023-01-07T09:09:39.002Z,97119.44
2023-01-07T09:12:06.850Z,97114.97
2023-01-07T09:14:33.827Z,97121.56
2023-01-07T09:17:00.492Z,97110.91
2023-01-07T09:19:27.781Z,97122.19
2023-01-07T09:21:54.715Z,97118.97
2023-01-07T09:24:21.376Z,97108.97
2023-01-07T09:26:48.083Z,97121.41
2023-01-07T09:29:14.947Z,97108.13
2023-01-07T09:31:41.620Z,97115.81
2023-01-07T09:34:08.318Z,97115.06
2023-01-07T09:36:35.002Z,97122.50
2023-01-07T09:39:01.976Z,97121.88
2023-01-07T09:41:37.218Z,97116.63
2023-01-07T09:44:19.831Z,97128.53
2023-01-07T09:46:46.700Z,97116.59
2023-01-07T09:49:16.188Z,97123.03
2023-01-07T09:51:42.836Z,97125.44
2023-01-07T09:54:29.384Z,97118.09
2023-01-07T09:56:56.054Z,97119.88
2023-01-07T09:59:24.161Z,97121.75
2023-01-07T10:02:05.321Z,97114.69
2023-01-07T10:04:51.334Z,97113.25
2023-01-07T10:07:21.014Z,97110.31
2023-01-07T10:09:53.793Z,97107.63
2023-01-07T10:12:47.199Z,97105.19
2023-01-07T10:15:35.273Z,97100.03
2023-01-07T10:18:29.825Z,97096.53
2023-01-07T10:21:10.730Z,97094.16
2023-01-07T10:23:39.613Z,97090.44
2023-01-07T10:26:06.647Z,97094.47
2023-01-07T10:28:40.057Z,97079.47
2023-01-07T10:31:07.178Z,97070.19
2023-01-07T10:33:33.884Z,97067.41
2023-01-07T10:36:18.823Z,97062.25
2023-01-07T10:38:49.002Z,97058.19
2023-01-07T10:41:22.971Z,97050.75
2023-01-07T10:43:56.407Z,97043.53
2023-01-07T10:46:39.479Z,97035.56
2023-01-07T10:49:22.547Z,97030.84
2023-01-07T10:52:10.138Z,97024.75
2023-01-07T10:54:55.361Z,97028.91
2023-01-07T10:57:23.898Z,97019.91
2023-01-07T10:59:52.069Z,97027.22
2023-01-07T11:02:20.768Z,97019.09
2023-01-07T11:04:47.604Z,97013.59
2023-01-07T11:07:38.321Z,97016.00
2023-01-07T11:10:05.224Z,97010.06
2023-01-07T11:12:36.944Z,97004.31
2023-01-07T11:15:15.410Z,96991.09
2023-01-07T11:17:46.745Z,96995.94
2023-01-07T11:20:13.425Z,96987.56
2023-01-07T11:22:40.096Z,96977.88
2023-01-07T11:25:26.229Z,96979.38
2023-01-07T11:27:52.956Z,96977.91
2023-01-07T11:30:30.715Z,96974.81
2023-01-07T11:32:59.711Z,96962.19
2023-01-07T11:35:26.456Z,96967.22
2023-01-07T11:37:54.343Z,96960.47
2023-01-07T11:40:22.379Z,96957.03
2023-01-07T11:42:51.343Z,96950.25
2023-01-07T11:45:19.519Z,96947.72
2023-01-07T11:47:55.528Z,96936.75
2023-01-07T11:50:30.363Z,96937.25
2023-01-07T11:53:02.308Z,96931.97
2023-01-07T11:55:29.152Z,96929.56
2023-01-07T11:58:28.933Z,96919.13
2023-01-07T12:00:42.592Z,96915.63
2023-01-07T12:03:11.429Z,96914.44
2023-01-07T12:05:38.594Z,96907.22
2023-01-07T12:08:05.270Z,96907.19
2023-01-07T12:10:34.127Z,96905.81
2023-01-07T12:13:01.745Z,96895.41
2023-01-07T12:15:30.488Z,96896.56
2023-01-07T12:18:03.189Z,96902.41
2023-01-07T12:20:48.979Z,96885.88
2023-01-07T12:23:28.667Z,96875.16
2023-01-07T12:26:22.741Z,96872.19
2023-01-07T12:29:07.862Z,96872.38
2023-01-07T12:31:43.504Z,96869.50
2023-01-07T12:34:26.254Z,96855.34
2023-01-07T12:36:56.776Z,96862.22
2023-01-07T12:39:29.573Z,96864.69
2023-01-07T12:42:09.478Z,96857.56
2023-01-07T12:44:36.803Z,96844.53
2023-01-07T12:47:31.025Z,96854.72
2023-01-07T12:50:14.084Z,96846.94
2023-01-07T12:53:01.978Z,96853.66
2023-01-07T12:55:31.438Z,96865.03
2023-01-07T12:58:20.128Z,96854.91
2023-01-07T13:00:57.337Z,96848.78
2023-01-07T13:04:02.945Z,96845.63
2023-01-07T13:06:37.425Z,96828.00
2023-01-07T13:09:12.312Z,96834.50
2023-01-07T13:11:43.626Z,96825.88
2023-01-07T13:14:34.581Z,96827.03
2023-01-07T13:17:08.445Z,96829.22
2023-01-07T13:19:35.077Z,96806.56
2023-01-07T13:22:01.721Z,96811.09
2023-01-07T13:24:54.847Z,96804.38
2023-01-07T13:27:38.352Z,96810.09
2023-01-07T13:30:19.302Z,96806.94
2023-01-07T13:33:15.929Z,96804.84
2023-01-07T13:36:07.813Z,96816.25
2023-01-07T13:38:53.289Z,96801.09
2023-01-07T13:41:31.771Z,96797.69
2023-01-07T13:44:35.469Z,96804.88
2023-01-07T13:47:02.707Z,96801.09
2023-01-07T13:49:32.903Z,96797.31
2023-01-07T13:52:20.271Z,96800.31
2023-01-07T13:54:49.837Z,96808.88
2023-01-07T13:57:31.482Z,96808.97
2023-01-07T13:59:59.136Z,96800.28
2023-01-07T14:02:26.669Z,96796.88
2023-01-07T14:05:06.250Z,96803.44
2023-01-07T14:07:42.269Z,96784.69
2023-01-07T14:10:22.866Z,96790.69
2023-01-07T14:13:11.553Z,96782.09
2023-01-07T14:16:10.538Z,96780.06
2023-01-07T14:18:49.654Z,96781.72
2023-01-07T14:21:22.736Z,96782.66
2023-01-07T14:24:24.700Z,96784.97
2023-01-07T14:26:57.288Z,96785.16
2023-01-07T14:29:44.979Z,96789.00
2023-01-07T14:32:31.014Z,96787.25
2023-01-07T14:35:00.015Z,96783.38
2023-01-07T14:37:52.832Z,96782.09
2023-01-07T14:40:28.169Z,96789.94
2023-01-07T14:42:55.848Z,96788.56
2023-01-07T14:45:40.764Z,96791.16
2023-01-07T14:48:10.286Z,96796.22
2023-01-07T14:50:48.971Z,96802.34
2023-01-07T14:53:44.134Z,96795.97
2023-01-07T14:56:38.461Z,96796.13
2023-01-07T14:59:20.162Z,96800.94
2023-01-07T15:02:01.021Z,96802.03
2023-01-07T15:04:49.778Z,96793.25
2023-01-07T15:07:18.431Z,96792.03
2023-01-07T15:09:50.683Z,96787.75
2023-01-07T15:12:20.323Z,96789.34
2023-01-07T15:14:48.605Z,96786.75
2023-01-07T15:17:15.316Z,96780.47
2023-01-07T15:19:41.956Z,96784.34
2023-01-07T15:22:30.566Z,96785.47
2023-01-07T15:25:06.223Z,96779.28
2023-01-07T15:27:54.247Z,96785.88
2023-01-07T15:30:35.092Z,96786.00
2023-01-07T15:33:09.705Z,96781.06
2023-01-07T15:35:40.967Z,96780.13
2023-01-07T15:38:31.575Z,96793.03
2023-01-07T15:40:58.202Z,96791.44
2023-01-07T15:43:28.787Z,96783.94
2023-01-07T15:46:05.273Z,96794.88
2023-01-07T15:48:31.983Z,96795.03
2023-01-07T15:50:58.746Z,96794.22
2023-01-07T15:53:26.352Z,96801.09
2023-01-07T15:56:01.747Z,96790.50
2023-01-07T15:58:40.452Z,96790.75
2023-01-07T16:01:08.040Z,96794.63
2023-01-07T16:03:36.935Z,96791.97
2023-01-07T16:06:03.668Z,96780.03
2023-01-07T16:08:32.349Z,96788.75
2023-01-07T16:11:03.648Z,96781.38
2023-01-07T16:13:30.799Z,96777.44
2023-01-07T16:15:58.973Z,96772.91
2023-01-07T16:18:25.653Z,96780.13
2023-01-07T16:21:00.414Z,96782.66
2023-01-07T16:23:28.379Z,96786.47
2023-01-07T16:26:14.238Z,96785.28
2023-01-07T16:28:44.004Z,96789.97
2023-01-07T16:31:12.109Z,96791.28
2023-01-07T16:33:38.838Z,96791.47
2023-01-07T16:36:08.118Z,96788.13
2023-01-07T16:38:34.751Z,96791.47
2023-01-07T16:41:01.401Z,96797.16
2023-01-07T16:43:40.035Z,96789.31
2023-01-07T16:46:30.091Z,96791.31
2023-01-07T16:49:08.804Z,96795.97
2023-01-07T16:51:46.693Z,96789.13
2023-01-07T16:54:28.864Z,96793.97
2023-01-07T16:56:59.410Z,96793.94
2023-01-07T16:59:32.833Z,96792.59
2023-01-07T17:02:01.666Z,96791.44
2023-01-07T17:04:28.984Z,96793.78
2023-01-07T17:06:56.864Z,96789.53
2023-01-07T17:09:47.938Z,96805.19
2023-01-07T17:12:28.339Z,96799.91
2023-01-07T17:14:55.465Z,96802.53
2023-01-07T17:17:25.191Z,96804.34
2023-01-07T17:20:23.604Z,96812.44
2023-01-07T17:22:52.366Z,96807.19
2023-01-07T17:25:26.248Z,96802.00
2023-01-07T17:27:57.954Z,96804.72
2023-01-07T17:30:27.469Z,96812.41
2023-01-07T17:32:54.088Z,96816.41
2023-01-07T17:35:22.349Z,96804.91
2023-01-07T17:37:49.392Z,96803.25
2023-01-07T17:40:16.731Z,96814.63
2023-01-07T17:42:43.442Z,96816.94
2023-01-07T17:45:14.415Z,96824.31
2023-01-07T17:47:41.081Z,96817.97
2023-01-07T17:50:08.340Z,96815.47
2023-01-07T17:52:34.975Z,96826.81
2023-01-07T17:55:01.655Z,96827.09
2023-01-07T17:57:28.274Z,96827.75
2023-01-07T17:59:54.889Z,96816.16
2023-01-07T18:02:23.295Z,96810.38
2023-01-07T18:04:49.959Z,96807.75
2023-01-07T18:07:16.625Z,96815.38
2023-01-07T18:09:43.266Z,96802.06
2023-01-07T18:12:18.958Z,96805.75
2023-01-07T18:14:45.720Z,96797.47
2023-01-07T18:17:12.365Z,96793.59
2023-01-07T18:19:39.107Z,96790.72
2023-01-07T18:22:05.761Z,96788.06
2023-01-07T18:24:32.570Z,96803.69
2023-01-07T18:26:59.226Z,96799.16
2023-01-07T18:29:25.900Z,96792.53
2023-01-07T18:31:52.660Z,96793.06
2023-01-07T18:34:19.354Z,96789.41
2023-01-07T18:36:46.019Z,96778.97
2023-01-07T18:39:19.121Z,96779.59
2023-01-07T18:41:46.193Z,96781.09
2023-01-07T18:44:12.863Z,96765.41
2023-01-07T18:46:39.577Z,96762.63
2023-01-07T18:49:06.236Z,96756.44
2023-01-07T18:51:32.905Z,96766.75
2023-01-07T18:53:59.546Z,96764.53
2023-01-07T18:56:26.196Z,96758.00
2023-01-07T18:58:53.489Z,96756.44
2023-01-07T19:01:20.243Z,96762.91
2023-01-07T19:03:47.307Z,96772.25
2023-01-07T19:06:13.933Z,96767.44
2023-01-07T19:08:40.559Z,96770.25
2023-01-07T19:11:11.861Z,96785.38
2023-01-07T19:13:38.477Z,96786.88
2023-01-07T19:16:09.363Z,96784.38
2023-01-07T19:18:36.132Z,96777.94
2023-01-07T19:21:06.562Z,96773.91
2023-01-07T19:23:33.250Z,96765.25
2023-01-07T19:26:00.867Z,96766.75
2023-01-07T19:28:27.569Z,96768.47
2023-01-07T19:30:56.719Z,96753.34
2023-01-07T19:33:23.396Z,96740.28
2023-01-07T19:35:50.097Z,96739.97
2023-01-07T19:38:16.722Z,96739.13
2023-01-07T19:40:46.322Z,96737.97
2023-01-07T19:43:12.954Z,96745.38
2023-01-07T19:45:40.114Z,96739.13
2023-01-07T19:48:07.050Z,96742.56
2023-01-07T19:50:33.677Z,96742.03
2023-01-07T19:53:00.294Z,96742.88
2023-01-07T19:55:26.918Z,96751.59
2023-01-07T19:57:53.570Z,96748.41
2023-01-07T20:00:20.233Z,96754.09
2023-01-07T20:02:46.959Z,96748.84
2023-01-07T20:05:13.730Z,96742.13
2023-01-07T20:07:40.378Z,96729.00
2023-01-07T20:10:07.494Z,96730.00
2023-01-07T20:12:34.161Z,96731.09
2023-01-07T20:15:00.798Z,96723.75
2023-01-07T20:17:27.451Z,96731.50
2023-01-07T20:19:54.365Z,96733.41
2023-01-07T20:22:21.000Z,96739.88
2023-01-07T20:24:47.661Z,96734.16
2023-01-07T20:27:14.336Z,96729.25
2023-01-07T20:29:40.995Z,96724.63
2023-01-07T20:32:07.767Z,96719.94
2023-01-07T20:34:34.481Z,96719.72
2023-01-07T20:37:01.363Z,96711.44
2023-01-07T20:39:27.982Z,96697.72
2023-01-07T20:41:55.238Z,96691.59
2023-01-07T20:44:21.858Z,96689.19
2023-01-07T20:46:48.561Z,96692.16
2023-01-07T20:49:15.186Z,96693.50
2023-01-07T20:51:41.910Z,96701.75
2023-01-07T20:54:08.538Z,96695.88
2023-01-07T20:56:35.273Z,96704.88
2023-01-07T20:59:01.926Z,96704.53
2023-01-07T21:01:28.722Z,96704.69
2023-01-07T21:03:55.446Z,96694.56
2023-01-07T21:06:22.120Z,96686.13
2023-01-07T21:08:49.183Z,96686.53
2023-01-07T21:11:17.607Z,96687.97
2023-01-07T21:13:44.294Z,96702.09
2023-01-07T21:16:11.057Z,96700.69
2023-01-07T21:18:37.745Z,96700.44
2023-01-07T21:21:11.695Z,96698.03
2023-01-07T21:23:38.402Z,96672.94
2023-01-07T21:26:05.303Z,96667.03
2023-01-07T21:28:31.950Z,96677.31
2023-01-07T21:31:05.378Z,96663.16
2023-01-07T21:33:32.903Z,96664.31
2023-01-07T21:35:59.621Z,96643.88
2023-01-07T21:38:26.548Z,96637.09
2023-01-07T21:40:53.188Z,96625.91
2023-01-07T21:43:19.866Z,96638.56
2023-01-07T21:45:47.048Z,96631.13
2023-01-07T21:48:13.717Z,96645.78
2023-01-07T21:50:40.866Z,96647.69
2023-01-07T21:53:07.545Z,96646.66
2023-01-07T21:55:38.281Z,96658.06
2023-01-07T21:58:04.925Z,96669.31
2023-01-07T22:00:31.791Z,96656.16
2023-01-07T22:02:58.433Z,96650.03
2023-01-07T22:05:25.353Z,96651.25
2023-01-07T22:07:52.063Z,96641.88
2023-01-07T22:10:18.928Z,96638.06
2023-01-07T22:12:45.592Z,96634.00
2023-01-07T22:15:12.339Z,96620.22
2023-01-07T22:17:39.211Z,96601.00
2023-01-07T22:20:06.411Z,96594.41
2023-01-07T22:22:33.049Z,96601.94
2023-01-07T22:24:59.697Z,96610.59
2023-01-07T22:27:26.464Z,96621.16
2023-01-07T22:29:53.130Z,96618.34
2023-01-07T22:32:19.852Z,96620.25
2023-01-07T22:34:46.494Z,96615.72
2023-01-07T22:37:15.003Z,96612.59
2023-01-07T22:39:46.590Z,96604.16
2023-01-07T22:42:26.031Z,96608.47
2023-01-07T22:44:55.000Z,96615.63
2023-01-07T22:47:29.085Z,96610.50
2023-01-07T22:49:55.741Z,96613.84
2023-01-07T22:52:22.401Z,96611.75
2023-01-07T22:54:49.304Z,96611.91
2023-01-07T22:57:16.032Z,96608.44
2023-01-07T22:59:42.893Z,96601.81
2023-01-07T23:02:09.532Z,96600.31
2023-01-07T23:04:36.402Z,96600.88
2023-01-07T23:07:03.012Z,96584.41
2023-01-07T23:09:29.687Z,96584.78
2023-01-07T23:11:56.301Z,96586.00
2023-01-07T23:14:22.940Z,96579.44
2023-01-07T23:16:49.942Z,96573.63
2023-01-07T23:19:18.447Z,96560.97
2023-01-07T23:21:46.522Z,96573.47
2023-01-07T23:24:13.761Z,96578.47
2023-01-07T23:26:40.899Z,96579.63
2023-01-07T23:29:07.551Z,96570.16
2023-01-07T23:31:34.806Z,96553.84
2023-01-07T23:34:01.513Z,96542.38
2023-01-07T23:36:28.181Z,96543.50
2023-01-07T23:38:54.851Z,96542.34
2023-01-07T23:41:21.515Z,96551.25
2023-01-07T23:43:48.809Z,96548.72
2023-01-07T23:46:15.547Z,96551.34
2023-01-07T23:48:42.220Z,96544.56
2023-01-07T23:51:12.697Z,96548.50
2023-01-07T23:53:39.356Z,96536.84
2023-01-07T23:56:06.276Z,96539.50
2023-01-07T23:58:33.022Z,96537.59
